sensor_id;sensor_type;location;lat;lon;timestamp;pressure;altitude;pressure_sealevel;temperature;humidity
10075;BME280;5076;42.680;23.288;2023-01-29T00:01:32;95044.25;;;-0.14;100.00
10075;BME280;5076;42.680;23.288;2023-01-29T00:04:00;95041.03;;;0.06;100.00
10075;BME280;5076;42.680;23.288;2023-01-29T00:06:27;95034.13;;;-0.09;100.00
10075;BME280;5076;42.680;23.288;2023-01-29T00:08:54;95062.75;;;-0.02;100.00
10075;BME280;5076;42.680;23.288;2023-01-29T00:11:21;95056.94;;;-0.04;100.00
10075;BME280;5076;42.680;23.288;2023-01-29T00:13:50;95057.84;;;-0.12;100.00
10075;BME280;5076;42.680;23.288;2023-01-29T00:16:17;95054.16;;;-0.03;100.00
10075;BME280;5076;42.680;23.288;2023-01-29T00:18:44;95057.63;;;-0.17;100.00
10075;BME280;5076;42.680;23.288;2023-01-29T00:21:13;95064.44;;;-0.16;100.00
10075;BME280;5076;42.680;23.288;2023-01-29T00:23:41;95053.84;;;-0.14;100.00
10075;BME280;5076;42.680;23.288;2023-01-29T00:26:09;95059.72;;;-0.06;100.00
10075;BME280;5076;42.680;23.288;2023-01-29T00:28:36;95063.22;;;-0.13;100.00
10075;BME280;5076;42.680;23.288;2023-01-29T00:31:08;95058.91;;;-0.06;100.00
10075;BME280;5076;42.680;23.288;2023-01-29T00:33:35;95063.84;;;-0.11;100.00
10075;BME280;5076;42.680;23.288;2023-01-29T00:36:03;95059.53;;;-0.04;100.00
10075;BME280;5076;42.680;23.288;2023-01-29T00:38:32;95056.50;;;-0.08;100.00
10075;BME280;5076;42.680;23.288;2023-01-29T00:41:04;95059.25;;;-0.16;100.00
10075;BME280;5076;42.680;23.288;2023-01-29T00:43:48;95064.22;;;-0.14;100.00
10075;BME280;5076;42.680;23.288;2023-01-29T00:46:33;95071.22;;;-0.15;100.00
10075;BME280;5076;42.680;23.288;2023-01-29T00:49:00;95066.47;;;-0.11;100.00
10075;BME280;5076;42.680;23.288;2023-01-29T00:51:27;95052.22;;;-0.15;100.00
10075;BME280;5076;42.680;23.288;2023-01-29T00:53:55;95068.47;;;-0.28;100.00
10075;BME280;5076;42.680;23.288;2023-01-29T00:56:22;95072.25;;;-0.30;100.00
10075;BME280;5076;42.680;23.288;2023-01-29T00:58:49;95067.69;;;-0.28;100.00
10075;BME280;5076;42.680;23.288;2023-01-29T01:01:16;95063.41;;;-0.15;100.00
10075;BME280;5076;42.680;23.288;2023-01-29T01:04:03;95062.25;;;-0.12;100.00
10075;BME280;5076;42.680;23.288;2023-01-29T01:06:29;95059.41;;;-0.17;100.00
10075;BME280;5076;42.680;23.288;2023-01-29T01:08:57;95075.72;;;-0.23;100.00
10075;BME280;5076;42.680;23.288;2023-01-29T01:11:41;95062.31;;;-0.27;100.00
10075;BME280;5076;42.680;23.288;2023-01-29T01:14:08;95069.56;;;-0.22;100.00
10075;BME280;5076;42.680;23.288;2023-01-29T01:16:35;95060.22;;;-0.17;100.00
10075;BME280;5076;42.680;23.288;2023-01-29T01:19:02;95066.16;;;-0.02;100.00
10075;BME280;5076;42.680;23.288;2023-01-29T01:21:29;95057.84;;;-0.12;100.00
10075;BME280;5076;42.680;23.288;2023-01-29T01:23:57;95062.38;;;-0.20;100.00
10075;BME280;5076;42.680;23.288;2023-01-29T01:26:24;95050.31;;;-0.28;100.00
10075;BME280;5076;42.680;23.288;2023-01-29T01:28:51;95058.84;;;-0.34;100.00
10075;BME280;5076;42.680;23.288;2023-01-29T01:31:18;95059.22;;;-0.37;100.00
10075;BME280;5076;42.680;23.288;2023-01-29T01:33:45;95072.19;;;-0.37;100.00
10075;BME280;5076;42.680;23.288;2023-01-29T01:36:12;95063.78;;;-0.39;100.00
10075;BME280;5076;42.680;23.288;2023-01-29T01:38:40;95059.94;;;-0.43;100.00
10075;BME280;5076;42.680;23.288;2023-01-29T01:41:12;95055.63;;;-0.36;100.00
10075;BME280;5076;42.680;23.288;2023-01-29T01:43:50;95066.28;;;-0.31;100.00
10075;BME280;5076;42.680;23.288;2023-01-29T01:46:18;95066.88;;;-0.29;100.00
10075;BME280;5076;42.680;23.288;2023-01-29T01:49:10;95071.72;;;-0.26;100.00
10075;BME280;5076;42.680;23.288;2023-01-29T01:51:38;95073.50;;;-0.26;100.00
10075;BME280;5076;42.680;23.288;2023-01-29T01:54:08;95075.66;;;-0.30;100.00
10075;BME280;5076;42.680;23.288;2023-01-29T01:56:40;95077.75;;;-0.40;100.00
10075;BME280;5076;42.680;23.288;2023-01-29T01:59:11;95083.06;;;-0.48;100.00
10075;BME280;5076;42.680;23.288;2023-01-29T02:01:41;95071.97;;;-0.57;100.00
10075;BME280;5076;42.680;23.288;2023-01-29T02:04:16;95073.41;;;-0.54;100.00
10075;BME280;5076;42.680;23.288;2023-01-29T02:07:02;95076.47;;;-0.65;100.00
10075;BME280;5076;42.680;23.288;2023-01-29T02:09:51;95084.44;;;-0.67;100.00
10075;BME280;5076;42.680;23.288;2023-01-29T02:12:19;95090.22;;;-0.50;100.00
10075;BME280;5076;42.680;23.288;2023-01-29T02:14:47;95076.13;;;-0.62;100.00
10075;BME280;5076;42.680;23.288;2023-01-29T02:17:16;95086.19;;;-0.53;100.00
10075;BME280;5076;42.680;23.288;2023-01-29T02:19:52;95089.88;;;-0.47;100.00
10075;BME280;5076;42.680;23.288;2023-01-29T02:22:35;95080.81;;;-0.51;100.00
10075;BME280;5076;42.680;23.288;2023-01-29T02:28:25;95084.09;;;-0.43;100.00
10075;BME280;5076;42.680;23.288;2023-01-29T02:31:00;95096.81;;;-0.33;100.00
10075;BME280;5076;42.680;23.288;2023-01-29T02:33:39;95095.16;;;-0.55;100.00
10075;BME280;5076;42.680;23.288;2023-01-29T02:36:14;95099.16;;;-0.53;100.00
10075;BME280;5076;42.680;23.288;2023-01-29T02:38:49;95093.69;;;-0.43;100.00
10075;BME280;5076;42.680;23.288;2023-01-29T02:41:25;95093.81;;;-0.51;100.00
10075;BME280;5076;42.680;23.288;2023-01-29T02:43:58;95092.50;;;-0.41;100.00
10075;BME280;5076;42.680;23.288;2023-01-29T02:46:33;95110.41;;;-0.46;100.00
10075;BME280;5076;42.680;23.288;2023-01-29T02:49:08;95098.25;;;-0.45;100.00
10075;BME280;5076;42.680;23.288;2023-01-29T02:51:40;95108.28;;;-0.42;100.00
10075;BME280;5076;42.680;23.288;2023-01-29T02:54:15;95096.75;;;-0.54;100.00
10075;BME280;5076;42.680;23.288;2023-01-29T02:56:47;95106.16;;;-0.53;100.00
10075;BME280;5076;42.680;23.288;2023-01-29T02:59:22;95103.66;;;-0.47;100.00
10075;BME280;5076;42.680;23.288;2023-01-29T03:01:52;95102.72;;;-0.39;100.00
10075;BME280;5076;42.680;23.288;2023-01-29T03:04:25;95094.66;;;-0.44;100.00
10075;BME280;5076;42.680;23.288;2023-01-29T03:06:57;95097.84;;;-0.49;100.00
10075;BME280;5076;42.680;23.288;2023-01-29T03:09:32;95115.44;;;-0.44;100.00
10075;BME280;5076;42.680;23.288;2023-01-29T03:12:04;95106.03;;;-0.45;100.00
10075;BME280;5076;42.680;23.288;2023-01-29T03:14:47;95105.34;;;-0.54;100.00
10075;BME280;5076;42.680;23.288;2023-01-29T03:17:36;95106.03;;;-0.45;100.00
10075;BME280;5076;42.680;23.288;2023-01-29T03:20:07;95106.84;;;-0.45;100.00
10075;BME280;5076;42.680;23.288;2023-01-29T03:22:38;95107.78;;;-0.52;100.00
10075;BME280;5076;42.680;23.288;2023-01-29T03:25:07;95104.25;;;-0.45;100.00
10075;BME280;5076;42.680;23.288;2023-01-29T03:27:56;95112.66;;;-0.43;100.00
10075;BME280;5076;42.680;23.288;2023-01-29T03:30:46;95115.34;;;-0.36;100.00
10075;BME280;5076;42.680;23.288;2023-01-29T03:33:35;95109.72;;;-0.40;100.00
10075;BME280;5076;42.680;23.288;2023-01-29T03:36:08;95112.25;;;-0.46;100.00
10075;BME280;5076;42.680;23.288;2023-01-29T03:38:37;95118.84;;;-0.44;100.00
10075;BME280;5076;42.680;23.288;2023-01-29T03:41:09;95110.41;;;-0.46;100.00
10075;BME280;5076;42.680;23.288;2023-01-29T03:43:45;95113.81;;;-0.45;100.00
10075;BME280;5076;42.680;23.288;2023-01-29T03:46:21;95103.56;;;-0.53;100.00
10075;BME280;5076;42.680;23.288;2023-01-29T03:48:57;95112.47;;;-0.41;100.00
10075;BME280;5076;42.680;23.288;2023-01-29T03:51:29;95125.22;;;-0.46;100.00
10075;BME280;5076;42.680;23.288;2023-01-29T03:54:04;95114.72;;;-0.38;100.00
10075;BME280;5076;42.680;23.288;2023-01-29T03:56:38;95104.88;;;-0.43;100.00
10075;BME280;5076;42.680;23.288;2023-01-29T03:59:17;95099.16;;;-0.53;100.00
10075;BME280;5076;42.680;23.288;2023-01-29T04:01:50;95116.81;;;-0.48;100.00
10075;BME280;5076;42.680;23.288;2023-01-29T04:04:22;95100.25;;;-0.47;100.00
10075;BME280;5076;42.680;23.288;2023-01-29T04:06:51;95108.75;;;-0.53;100.00
10075;BME280;5076;42.680;23.288;2023-01-29T04:09:23;95111.00;;;-0.50;100.00
10075;BME280;5076;42.680;23.288;2023-01-29T04:11:59;95109.53;;;-0.38;100.00
10075;BME280;5076;42.680;23.288;2023-01-29T04:14:28;95123.59;;;-0.32;100.00
10075;BME280;5076;42.680;23.288;2023-01-29T04:17:01;95136.38;;;-0.46;100.00
10075;BME280;5076;42.680;23.288;2023-01-29T04:19:29;95122.81;;;-0.48;100.00
10075;BME280;5076;42.680;23.288;2023-01-29T04:22:02;95133.00;;;-0.46;100.00
10075;BME280;5076;42.680;23.288;2023-01-29T04:24:30;95123.63;;;-0.47;100.00
10075;BME280;5076;42.680;23.288;2023-01-29T04:27:06;95128.25;;;-0.43;100.00
10075;BME280;5076;42.680;23.288;2023-01-29T04:29:47;95122.63;;;-0.46;100.00
10075;BME280;5076;42.680;23.288;2023-01-29T04:32:25;95123.97;;;-0.50;100.00
10075;BME280;5076;42.680;23.288;2023-01-29T04:35:00;95132.75;;;-0.51;100.00
10075;BME280;5076;42.680;23.288;2023-01-29T04:37:35;95124.06;;;-0.58;100.00
10075;BME280;5076;42.680;23.288;2023-01-29T04:40:14;95132.38;;;-0.48;100.00
10075;BME280;5076;42.680;23.288;2023-01-29T04:42:48;95130.03;;;-0.43;100.00
10075;BME280;5076;42.680;23.288;2023-01-29T04:45:26;95137.66;;;-0.56;100.00
10075;BME280;5076;42.680;23.288;2023-01-29T04:48:03;95138.19;;;-0.46;100.00
10075;BME280;5076;42.680;23.288;2023-01-29T04:50:37;95129.69;;;-0.55;100.00
10075;BME280;5076;42.680;23.288;2023-01-29T04:53:12;95133.28;;;-0.56;100.00
10075;BME280;5076;42.680;23.288;2023-01-29T04:55:45;95129.25;;;-0.58;100.00
10075;BME280;5076;42.680;23.288;2023-01-29T04:58:20;95142.94;;;-0.50;100.00
10075;BME280;5076;42.680;23.288;2023-01-29T05:00:52;95137.56;;;-0.48;100.00
10075;BME280;5076;42.680;23.288;2023-01-29T05:03:24;95140.97;;;-0.48;100.00
10075;BME280;5076;42.680;23.288;2023-01-29T05:05:53;95139.44;;;-0.42;100.00
10075;BME280;5076;42.680;23.288;2023-01-29T05:08:23;95137.84;;;-0.58;100.00
10075;BME280;5076;42.680;23.288;2023-01-29T05:10:52;95134.06;;;-0.55;100.00
10075;BME280;5076;42.680;23.288;2023-01-29T05:13:21;95132.81;;;-0.59;100.00
10075;BME280;5076;42.680;23.288;2023-01-29T05:15:54;95147.41;;;-0.58;100.00
10075;BME280;5076;42.680;23.288;2023-01-29T05:18:27;95150.56;;;-0.48;100.00
10075;BME280;5076;42.680;23.288;2023-01-29T05:20:55;95150.38;;;-0.47;100.00
10075;BME280;5076;42.680;23.288;2023-01-29T05:23:23;95133.72;;;-0.52;100.00
10075;BME280;5076;42.680;23.288;2023-01-29T05:25:50;95138.47;;;-0.56;100.00
10075;BME280;5076;42.680;23.288;2023-01-29T05:28:17;95146.78;;;-0.60;100.00
10075;BME280;5076;42.680;23.288;2023-01-29T05:30:45;95150.97;;;-0.45;100.00
10075;BME280;5076;42.680;23.288;2023-01-29T05:33:15;95151.19;;;-0.46;100.00
10075;BME280;5076;42.680;23.288;2023-01-29T05:35:44;95155.47;;;-0.53;100.00
10075;BME280;5076;42.680;23.288;2023-01-29T05:38:11;95149.66;;;-0.55;100.00
10075;BME280;5076;42.680;23.288;2023-01-29T05:40:38;95158.34;;;-0.48;100.00
10075;BME280;5076;42.680;23.288;2023-01-29T05:43:13;95155.81;;;-0.42;100.00
10075;BME280;5076;42.680;23.288;2023-01-29T05:45:40;95145.63;;;-0.58;100.00
10075;BME280;5076;42.680;23.288;2023-01-29T05:48:07;95150.09;;;-0.52;100.00
10075;BME280;5076;42.680;23.288;2023-01-29T05:50:34;95157.78;;;-0.44;100.00
10075;BME280;5076;42.680;23.288;2023-01-29T05:53:02;95156.56;;;-0.48;100.00
10075;BME280;5076;42.680;23.288;2023-01-29T05:55:30;95162.44;;;-0.54;100.00
10075;BME280;5076;42.680;23.288;2023-01-29T05:57:56;95171.22;;;-0.55;100.00
10075;BME280;5076;42.680;23.288;2023-01-29T06:00:24;95168.09;;;-0.50;100.00
10075;BME280;5076;42.680;23.288;2023-01-29T06:02:51;95181.31;;;-0.60;100.00
10075;BME280;5076;42.680;23.288;2023-01-29T06:05:18;95181.69;;;-0.48;100.00
10075;BME280;5076;42.680;23.288;2023-01-29T06:07:45;95178.72;;;-0.45;100.00
10075;BME280;5076;42.680;23.288;2023-01-29T06:10:15;95178.81;;;-0.39;100.00
10075;BME280;5076;42.680;23.288;2023-01-29T06:12:42;95180.91;;;-0.49;100.00
10075;BME280;5076;42.680;23.288;2023-01-29T06:15:10;95189.19;;;-0.24;100.00
10075;BME280;5076;42.680;23.288;2023-01-29T06:17:40;95191.50;;;-0.29;100.00
10075;BME280;5076;42.680;23.288;2023-01-29T06:20:08;95195.72;;;-0.28;100.00
10075;BME280;5076;42.680;23.288;2023-01-29T06:22:35;95202.28;;;-0.32;100.00
10075;BME280;5076;42.680;23.288;2023-01-29T06:25:02;95210.69;;;-0.30;100.00
10075;BME280;5076;42.680;23.288;2023-01-29T06:27:30;95201.19;;;-0.23;100.00
10075;BME280;5076;42.680;23.288;2023-01-29T06:29:57;95207.66;;;-0.33;100.00
10075;BME280;5076;42.680;23.288;2023-01-29T06:32:24;95203.00;;;-0.53;100.00
10075;BME280;5076;42.680;23.288;2023-01-29T06:34:51;95213.72;;;-0.26;100.00
10075;BME280;5076;42.680;23.288;2023-01-29T06:37:18;95222.25;;;-0.32;100.00
10075;BME280;5076;42.680;23.288;2023-01-29T06:39:45;95212.22;;;-0.21;100.00
10075;BME280;5076;42.680;23.288;2023-01-29T06:42:11;95228.31;;;-0.25;100.00
10075;BME280;5076;42.680;23.288;2023-01-29T06:44:40;95216.47;;;-0.13;100.00
10075;BME280;5076;42.680;23.288;2023-01-29T06:47:06;95225.44;;;-0.01;100.00
10075;BME280;5076;42.680;23.288;2023-01-29T06:49:33;95224.19;;;-0.05;100.00
10075;BME280;5076;42.680;23.288;2023-01-29T06:52:00;95225.88;;;0.03;100.00
10075;BME280;5076;42.680;23.288;2023-01-29T06:54:27;95234.25;;;0.19;100.00
10075;BME280;5076;42.680;23.288;2023-01-29T06:56:54;95232.78;;;0.31;100.00
10075;BME280;5076;42.680;23.288;2023-01-29T06:59:20;95231.66;;;0.19;100.00
10075;BME280;5076;42.680;23.288;2023-01-29T07:01:49;95231.19;;;0.16;100.00
10075;BME280;5076;42.680;23.288;2023-01-29T07:04:15;95230.97;;;0.11;100.00
10075;BME280;5076;42.680;23.288;2023-01-29T07:06:42;95223.88;;;0.05;100.00
10075;BME280;5076;42.680;23.288;2023-01-29T07:09:10;95225.31;;;0.07;100.00
10075;BME280;5076;42.680;23.288;2023-01-29T07:11:38;95230.69;;;0.06;100.00
10075;BME280;5076;42.680;23.288;2023-01-29T07:14:06;95237.16;;;0.10;100.00
10075;BME280;5076;42.680;23.288;2023-01-29T07:16:33;95245.72;;;0.25;100.00
10075;BME280;5076;42.680;23.288;2023-01-29T07:19:01;95241.84;;;0.35;100.00
10075;BME280;5076;42.680;23.288;2023-01-29T07:21:28;95249.03;;;0.19;100.00
10075;BME280;5076;42.680;23.288;2023-01-29T07:23:55;95251.94;;;0.09;100.00
10075;BME280;5076;42.680;23.288;2023-01-29T07:26:21;95256.78;;;0.12;100.00
10075;BME280;5076;42.680;23.288;2023-01-29T07:28:48;95252.63;;;0.18;100.00
10075;BME280;5076;42.680;23.288;2023-01-29T07:31:15;95254.00;;;0.14;100.00
10075;BME280;5076;42.680;23.288;2023-01-29T07:33:42;95264.53;;;0.27;100.00
10075;BME280;5076;42.680;23.288;2023-01-29T07:36:11;95248.47;;;0.38;100.00
10075;BME280;5076;42.680;23.288;2023-01-29T07:38:38;95260.22;;;0.34;100.00
10075;BME280;5076;42.680;23.288;2023-01-29T07:41:05;95252.31;;;0.42;100.00
10075;BME280;5076;42.680;23.288;2023-01-29T07:43:32;95257.25;;;0.37;100.00
10075;BME280;5076;42.680;23.288;2023-01-29T07:46:01;95257.66;;;0.55;100.00
10075;BME280;5076;42.680;23.288;2023-01-29T07:48:28;95271.94;;;0.45;100.00
10075;BME280;5076;42.680;23.288;2023-01-29T07:50:55;95265.41;;;0.34;100.00
10075;BME280;5076;42.680;23.288;2023-01-29T07:53:25;95265.84;;;0.38;100.00
10075;BME280;5076;42.680;23.288;2023-01-29T07:55:52;95265.53;;;0.26;100.00
10075;BME280;5076;42.680;23.288;2023-01-29T07:58:19;95272.97;;;0.29;100.00
10075;BME280;5076;42.680;23.288;2023-01-29T08:00:46;95278.31;;;0.42;100.00
10075;BME280;5076;42.680;23.288;2023-01-29T08:03:15;95268.53;;;0.65;100.00
10075;BME280;5076;42.680;23.288;2023-01-29T08:05:42;95270.34;;;0.65;100.00
10075;BME280;5076;42.680;23.288;2023-01-29T08:08:09;95277.94;;;0.45;100.00
10075;BME280;5076;42.680;23.288;2023-01-29T08:10:38;95271.19;;;0.51;100.00
10075;BME280;5076;42.680;23.288;2023-01-29T08:13:06;95278.31;;;0.42;100.00
10075;BME280;5076;42.680;23.288;2023-01-29T08:15:33;95270.84;;;0.54;100.00
10075;BME280;5076;42.680;23.288;2023-01-29T08:18:00;95275.66;;;0.57;100.00
10075;BME280;5076;42.680;23.288;2023-01-29T08:20:27;95270.84;;;0.75;100.00
10075;BME280;5076;42.680;23.288;2023-01-29T08:22:58;95276.03;;;0.54;100.00
10075;BME280;5076;42.680;23.288;2023-01-29T08:25:25;95289.22;;;0.52;100.00
10075;BME280;5076;42.680;23.288;2023-01-29T08:27:55;95286.44;;;0.54;100.00
10075;BME280;5076;42.680;23.288;2023-01-29T08:30:22;95287.34;;;0.46;100.00
10075;BME280;5076;42.680;23.288;2023-01-29T08:32:49;95293.91;;;0.42;100.00
10075;BME280;5076;42.680;23.288;2023-01-29T08:35:16;95288.91;;;0.26;100.00
10075;BME280;5076;42.680;23.288;2023-01-29T08:37:43;95294.03;;;0.19;100.00
10075;BME280;5076;42.680;23.288;2023-01-29T08:40:10;95288.91;;;0.26;100.00
10075;BME280;5076;42.680;23.288;2023-01-29T08:42:38;95293.31;;;0.61;100.00
10075;BME280;5076;42.680;23.288;2023-01-29T08:45:08;95295.88;;;0.40;100.00
10075;BME280;5076;42.680;23.288;2023-01-29T08:47:35;95294.28;;;0.75;100.00
10075;BME280;5076;42.680;23.288;2023-01-29T08:50:02;95301.88;;;0.98;100.00
10075;BME280;5076;42.680;23.288;2023-01-29T08:52:29;95299.56;;;0.67;100.00
10075;BME280;5076;42.680;23.288;2023-01-29T08:54:56;95312.66;;;0.74;100.00
10075;BME280;5076;42.680;23.288;2023-01-29T08:57:23;95312.31;;;0.62;100.00
10075;BME280;5076;42.680;23.288;2023-01-29T08:59:50;95307.88;;;0.56;100.00
10075;BME280;5076;42.680;23.288;2023-01-29T09:02:18;95314.56;;;0.65;100.00
10075;BME280;5076;42.680;23.288;2023-01-29T09:04:44;95316.69;;;0.61;100.00
10075;BME280;5076;42.680;23.288;2023-01-29T09:07:11;95316.38;;;0.50;100.00
10075;BME280;5076;42.680;23.288;2023-01-29T09:09:38;95324.94;;;0.65;100.00
10075;BME280;5076;42.680;23.288;2023-01-29T09:12:05;95320.50;;;0.59;100.00
10075;BME280;5076;42.680;23.288;2023-01-29T09:14:32;95318.59;;;0.67;100.00
10075;BME280;5076;42.680;23.288;2023-01-29T09:16:59;95311.44;;;0.55;100.00
10075;BME280;5076;42.680;23.288;2023-01-29T09:19:28;95313.47;;;0.74;100.00
10075;BME280;5076;42.680;23.288;2023-01-29T09:21:54;95312.88;;;0.57;100.00
10075;BME280;5076;42.680;23.288;2023-01-29T09:24:21;95309.34;;;0.65;100.00
10075;BME280;5076;42.680;23.288;2023-01-29T09:26:48;95312.03;;;0.93;100.00
10075;BME280;5076;42.680;23.288;2023-01-29T09:29:15;95314.28;;;0.75;100.00
10075;BME280;5076;42.680;23.288;2023-01-29T09:31:42;95305.28;;;0.77;100.00
10075;BME280;5076;42.680;23.288;2023-01-29T09:34:09;95310.38;;;0.85;100.00
10075;BME280;5076;42.680;23.288;2023-01-29T09:36:37;95301.50;;;0.80;100.00
10075;BME280;5076;42.680;23.288;2023-01-29T09:39:03;95306.22;;;0.69;100.00
10075;BME280;5076;42.680;23.288;2023-01-29T09:41:42;95300.53;;;1.02;100.00
10075;BME280;5076;42.680;23.288;2023-01-29T09:44:19;95311.19;;;0.86;100.00
10075;BME280;5076;42.680;23.288;2023-01-29T09:46:50;95298.44;;;0.55;100.00
10075;BME280;5076;42.680;23.288;2023-01-29T09:49:23;95289.06;;;0.39;100.00
10075;BME280;5076;42.680;23.288;2023-01-29T09:51:57;95292.94;;;0.64;100.00
10075;BME280;5076;42.680;23.288;2023-01-29T09:54:30;95294.16;;;0.47;100.00
10075;BME280;5076;42.680;23.288;2023-01-29T09:56:59;95301.50;;;0.58;100.00
10075;BME280;5076;42.680;23.288;2023-01-29T09:59:29;95292.44;;;0.54;100.00
10075;BME280;5076;42.680;23.288;2023-01-29T10:02:02;95291.53;;;0.47;100.00
10075;BME280;5076;42.680;23.288;2023-01-29T10:04:55;95284.50;;;0.41;100.00
10075;BME280;5076;42.680;23.288;2023-01-29T10:07:43;95297.97;;;0.30;100.00
10075;BME280;5076;42.680;23.288;2023-01-29T10:10:25;95285.00;;;0.51;100.00
10075;BME280;5076;42.680;23.288;2023-01-29T10:13:06;95277.94;;;0.45;100.00
10075;BME280;5076;42.680;23.288;2023-01-29T10:15:51;95286.38;;;0.32;100.00
10075;BME280;5076;42.680;23.288;2023-01-29T10:18:48;95273.31;;;0.26;100.00
10075;BME280;5076;42.680;23.288;2023-01-29T10:21:30;95295.06;;;0.40;100.00
10075;BME280;5076;42.680;23.288;2023-01-29T10:24:11;95276.25;;;0.38;100.00
10075;BME280;5076;42.680;23.288;2023-01-29T10:26:42;95281.75;;;0.28;100.00
10075;BME280;5076;42.680;23.288;2023-01-29T10:29:13;95284.78;;;0.31;100.00
10075;BME280;5076;42.680;23.288;2023-01-29T10:31:43;95260.53;;;0.10;100.00
10075;BME280;5076;42.680;23.288;2023-01-29T10:34:15;95267.78;;;0.29;100.00
10075;BME280;5076;42.680;23.288;2023-01-29T10:36:46;95268.78;;;0.13;100.00
10075;BME280;5076;42.680;23.288;2023-01-29T10:39:17;95261.38;;;0.31;100.00
10075;BME280;5076;42.680;23.288;2023-01-29T10:42:04;95256.91;;;0.25;100.00
10075;BME280;5076;42.680;23.288;2023-01-29T10:44:39;95265.63;;;0.18;100.00
10075;BME280;5076;42.680;23.288;2023-01-29T10:47:27;95273.34;;;0.47;100.00
10075;BME280;5076;42.680;23.288;2023-01-29T10:50:14;95260.34;;;0.47;100.00
10075;BME280;5076;42.680;23.288;2023-01-29T10:52:54;95274.19;;;0.33;100.00
10075;BME280;5076;42.680;23.288;2023-01-29T10:55:38;95257.19;;;0.52;100.00
10075;BME280;5076;42.680;23.288;2023-01-29T10:58:14;95251.31;;;0.43;100.00
10075;BME280;5076;42.680;23.288;2023-01-29T11:00:45;95251.00;;;0.53;100.00
10075;BME280;5076;42.680;23.288;2023-01-29T11:03:15;95248.50;;;0.59;100.00
10075;BME280;5076;42.680;23.288;2023-01-29T11:05:46;95251.97;;;0.88;100.00
10075;BME280;5076;42.680;23.288;2023-01-29T11:08:19;95238.25;;;0.79;100.00
10075;BME280;5076;42.680;23.288;2023-01-29T11:10:56;95237.19;;;0.95;100.00
10075;BME280;5076;42.680;23.288;2023-01-29T11:13:32;95248.47;;;1.02;100.00
10075;BME280;5076;42.680;23.288;2023-01-29T11:16:03;95232.75;;;0.89;100.00
10075;BME280;5076;42.680;23.288;2023-01-29T11:18:48;95242.28;;;0.82;100.00
10075;BME280;5076;42.680;23.288;2023-01-29T11:21:16;95237.03;;;0.75;100.00
10075;BME280;5076;42.680;23.288;2023-01-29T11:23:43;95235.50;;;0.59;100.00
10075;BME280;5076;42.680;23.288;2023-01-29T11:26:15;95250.28;;;0.80;100.00
10075;BME280;5076;42.680;23.288;2023-01-29T11:28:45;95215.03;;;0.78;100.00
10075;BME280;5076;42.680;23.288;2023-01-29T11:31:17;95230.97;;;0.68;100.00
10075;BME280;5076;42.680;23.288;2023-01-29T11:33:45;95215.91;;;0.42;100.00
10075;BME280;5076;42.680;23.288;2023-01-29T11:36:29;95219.63;;;0.54;100.00
10075;BME280;5076;42.680;23.288;2023-01-29T11:39:10;95221.69;;;0.59;100.00
10075;BME280;5076;42.680;23.288;2023-01-29T11:41:46;95209.25;;;0.76;100.00
10075;BME280;5076;42.680;23.288;2023-01-29T11:44:17;95195.34;;;0.90;100.00
10075;BME280;5076;42.680;23.288;2023-01-29T11:46:44;95203.53;;;0.87;100.00
10075;BME280;5076;42.680;23.288;2023-01-29T11:49:21;95196.47;;;1.09;100.00
10075;BME280;5076;42.680;23.288;2023-01-29T11:51:51;95197.97;;;0.96;100.00
10075;BME280;5076;42.680;23.288;2023-01-29T11:54:24;95212.50;;;1.12;100.00
10075;BME280;5076;42.680;23.288;2023-01-29T11:56:55;95207.66;;;1.02;100.00
10075;BME280;5076;42.680;23.288;2023-01-29T11:59:41;95193.75;;;1.17;100.00
10075;BME280;5076;42.680;23.288;2023-01-29T12:02:20;95190.22;;;1.31;100.00
10075;BME280;5076;42.680;23.288;2023-01-29T12:04:49;95185.66;;;1.05;100.00
10075;BME280;5076;42.680;23.288;2023-01-29T12:07:17;95187.81;;;1.29;100.00
10075;BME280;5076;42.680;23.288;2023-01-29T12:09:51;95177.75;;;1.20;100.00
10075;BME280;5076;42.680;23.288;2023-01-29T12:12:39;95188.81;;;1.28;100.00
10075;BME280;5076;42.680;23.288;2023-01-29T12:15:25;95175.25;;;1.05;100.00
10075;BME280;5076;42.680;23.288;2023-01-29T12:17:57;95191.97;;;0.96;100.00
10075;BME280;5076;42.680;23.288;2023-01-29T12:20:30;95179.31;;;0.86;100.00
10075;BME280;5076;42.680;23.288;2023-01-29T12:23:03;95197.16;;;1.17;100.00
10075;BME280;5076;42.680;23.288;2023-01-29T12:25:42;95194.91;;;1.14;100.00
10075;BME280;5076;42.680;23.288;2023-01-29T12:28:35;95189.25;;;1.38;100.00
10075;BME280;5076;42.680;23.288;2023-01-29T12:31:14;95196.16;;;1.18;100.00
10075;BME280;5076;42.680;23.288;2023-01-29T12:33:49;95190.66;;;1.07;100.00
10075;BME280;5076;42.680;23.288;2023-01-29T12:36:22;95187.44;;;1.04;100.00
10075;BME280;5076;42.680;23.288;2023-01-29T12:38:50;95188.19;;;1.26;100.00
10075;BME280;5076;42.680;23.288;2023-01-29T12:41:29;95195.50;;;1.37;100.00
10075;BME280;5076;42.680;23.288;2023-01-29T12:44:02;95183.75;;;1.20;100.00
10075;BME280;5076;42.680;23.288;2023-01-29T12:46:33;95194.25;;;1.33;100.00
10075;BME280;5076;42.680;23.288;2023-01-29T12:49:09;95185.03;;;1.31;100.00
10075;BME280;5076;42.680;23.288;2023-01-29T12:51:41;95189.03;;;1.33;100.00
10075;BME280;5076;42.680;23.288;2023-01-29T12:54:12;95197.44;;;1.01;100.00
10075;BME280;5076;42.680;23.288;2023-01-29T12:56:43;95192.78;;;0.96;100.00
10075;BME280;5076;42.680;23.288;2023-01-29T12:59:17;95188.44;;;1.03;100.00
10075;BME280;5076;42.680;23.288;2023-01-29T13:01:49;95203.63;;;1.00;100.00
10075;BME280;5076;42.680;23.288;2023-01-29T13:04:28;95192.13;;;0.66;100.00
10075;BME280;5076;42.680;23.288;2023-01-29T13:07:03;95194.22;;;0.78;100.00
10075;BME280;5076;42.680;23.288;2023-01-29T13:09:33;95191.50;;;0.86;100.00
10075;BME280;5076;42.680;23.288;2023-01-29T13:12:06;95193.19;;;0.72;100.00
10075;BME280;5076;42.680;23.288;2023-01-29T13:14:43;95178.16;;;0.95;100.00
10075;BME280;5076;42.680;23.288;2023-01-29T13:17:15;95184.50;;;0.86;100.00
10075;BME280;5076;42.680;23.288;2023-01-29T13:19:46;95195.16;;;0.91;100.00
10075;BME280;5076;42.680;23.288;2023-01-29T13:22:19;95189.34;;;0.89;100.00